Terminal Aerodrome Forecast
Issued by NWS

Home | Current Version | Previous Version | Text Only | Print | Product List | Glossary On
Versions: 1 2 3 4 5 6 7 8 9 10 11 12 13 14 15 16
000
FTUS44 KMAF 202300
TAFINK
TAF
KINK 202324Z 2100/2124 13010KT P6SM -SHRA OVC090
     FM210800 12007KT 6SM -SHRA BR BKN025 OVC040
      TEMPO 2108/2112 2SM TSRA BR BKN015 OVC030CB
     FM211200 12005KT 3SM -SHRA BR OVC010=

USA.gov is the U.S. government's official web portal to all federal, state and local government web resources and services.